sensor_id;sensor_type;location;lat;lon;timestamp;P1;durP1;ratioP1;P2;durP2;ratioP2
51082;SDS011;37131;42.694;23.350;2023-04-01T00:00:46;162.30;;;53.08;;
51082;SDS011;37131;42.694;23.350;2023-04-01T00:03:11;217.63;;;72.32;;
51082;SDS011;37131;42.694;23.350;2023-04-01T00:05:37;12.73;;;4.13;;
51082;SDS011;37131;42.694;23.350;2023-04-01T00:08:02;14.20;;;4.75;;
51082;SDS011;37131;42.694;23.350;2023-04-01T00:10:27;11.43;;;4.63;;
51082;SDS011;37131;42.694;23.350;2023-04-01T00:12:53;19.08;;;5.57;;
51082;SDS011;37131;42.694;23.350;2023-04-01T00:15:18;15.27;;;4.78;;
51082;SDS011;37131;42.694;23.350;2023-04-01T00:17:44;9.65;;;3.75;;
51082;SDS011;37131;42.694;23.350;2023-04-01T00:20:09;12.10;;;3.97;;
51082;SDS011;37131;42.694;23.350;2023-04-01T00:22:35;8.85;;;4.32;;
51082;SDS011;37131;42.694;23.350;2023-04-01T00:25:01;57.95;;;17.30;;
51082;SDS011;37131;42.694;23.350;2023-04-01T00:27:27;10.07;;;4.30;;
51082;SDS011;37131;42.694;23.350;2023-04-01T00:29:53;11.13;;;3.55;;
51082;SDS011;37131;42.694;23.350;2023-04-01T00:32:18;45.33;;;12.68;;
51082;SDS011;37131;42.694;23.350;2023-04-01T00:34:43;10.63;;;3.47;;
51082;SDS011;37131;42.694;23.350;2023-04-01T00:37:09;9.57;;;3.15;;
51082;SDS011;37131;42.694;23.350;2023-04-01T00:39:35;10.07;;;3.67;;
51082;SDS011;37131;42.694;23.350;2023-04-01T00:42:01;8.48;;;3.78;;
51082;SDS011;37131;42.694;23.350;2023-04-01T00:44:32;7.97;;;3.13;;
51082;SDS011;37131;42.694;23.350;2023-04-01T00:46:59;14.15;;;3.70;;
51082;SDS011;37131;42.694;23.350;2023-04-01T00:49:33;11.95;;;3.45;;
51082;SDS011;37131;42.694;23.350;2023-04-01T00:52:04;13.20;;;3.63;;
51082;SDS011;37131;42.694;23.350;2023-04-01T00:54:32;89.50;;;29.75;;
51082;SDS011;37131;42.694;23.350;2023-04-01T00:57:00;12.88;;;3.90;;
51082;SDS011;37131;42.694;23.350;2023-04-01T00:59:34;21.92;;;8.13;;
51082;SDS011;37131;42.694;23.350;2023-04-01T01:02:04;9.35;;;3.17;;
51082;SDS011;37131;42.694;23.350;2023-04-01T01:04:32;101.82;;;25.05;;
51082;SDS011;37131;42.694;23.350;2023-04-01T01:18:17;9.63;;;3.23;;
51082;SDS011;37131;42.694;23.350;2023-04-01T01:29:45;6.13;;;2.35;;
51082;SDS011;37131;42.694;23.350;2023-04-01T01:35:24;7.63;;;3.25;;
51082;SDS011;37131;42.694;23.350;2023-04-01T01:37:56;14.35;;;3.28;;
51082;SDS011;37131;42.694;23.350;2023-04-01T01:40:26;7.95;;;3.08;;
51082;SDS011;37131;42.694;23.350;2023-04-01T01:42:56;17.83;;;4.95;;
51082;SDS011;37131;42.694;23.350;2023-04-01T01:45:26;4.28;;;2.17;;
51082;SDS011;37131;42.694;23.350;2023-04-01T01:47:52;5.53;;;2.15;;
51082;SDS011;37131;42.694;23.350;2023-04-01T01:50:19;4.70;;;2.00;;
51082;SDS011;37131;42.694;23.350;2023-04-01T01:52:47;8.52;;;2.83;;
51082;SDS011;37131;42.694;23.350;2023-04-01T01:55:29;5.05;;;2.38;;
51082;SDS011;37131;42.694;23.350;2023-04-01T01:58:00;6.75;;;2.42;;
51082;SDS011;37131;42.694;23.350;2023-04-01T02:00:30;12.20;;;2.65;;
51082;SDS011;37131;42.694;23.350;2023-04-01T02:02:57;87.00;;;20.38;;
51082;SDS011;37131;42.694;23.350;2023-04-01T02:05:24;5.20;;;2.28;;
51082;SDS011;37131;42.694;23.350;2023-04-01T02:10:39;51.33;;;12.23;;
51082;SDS011;37131;42.694;23.350;2023-04-01T02:13:15;6.40;;;2.35;;
51082;SDS011;37131;42.694;23.350;2023-04-01T02:15:46;7.68;;;2.50;;
51082;SDS011;37131;42.694;23.350;2023-04-01T02:18:13;5.20;;;1.88;;
51082;SDS011;37131;42.694;23.350;2023-04-01T02:20:40;7.38;;;2.50;;
51082;SDS011;37131;42.694;23.350;2023-04-01T02:23:07;68.65;;;30.20;;
51082;SDS011;37131;42.694;23.350;2023-04-01T02:25:35;7.22;;;2.72;;
51082;SDS011;37131;42.694;23.350;2023-04-01T02:28:04;7.63;;;2.25;;
51082;SDS011;37131;42.694;23.350;2023-04-01T02:30:32;8.93;;;2.60;;
51082;SDS011;37131;42.694;23.350;2023-04-01T02:33:00;80.85;;;29.85;;
51082;SDS011;37131;42.694;23.350;2023-04-01T02:35:26;13.73;;;3.30;;
51082;SDS011;37131;42.694;23.350;2023-04-01T02:37:52;6.20;;;2.05;;
51082;SDS011;37131;42.694;23.350;2023-04-01T02:40:18;5.68;;;2.33;;
51082;SDS011;37131;42.694;23.350;2023-04-01T02:42:44;36.47;;;11.95;;
51082;SDS011;37131;42.694;23.350;2023-04-01T02:45:10;7.40;;;2.70;;
51082;SDS011;37131;42.694;23.350;2023-04-01T02:47:36;8.02;;;3.42;;
51082;SDS011;37131;42.694;23.350;2023-04-01T02:50:02;13.13;;;4.10;;
51082;SDS011;37131;42.694;23.350;2023-04-01T02:52:28;68.03;;;18.05;;
51082;SDS011;37131;42.694;23.350;2023-04-01T02:54:55;7.10;;;3.15;;
51082;SDS011;37131;42.694;23.350;2023-04-01T02:57:21;21.35;;;4.45;;
51082;SDS011;37131;42.694;23.350;2023-04-01T02:59:47;39.85;;;14.50;;
51082;SDS011;37131;42.694;23.350;2023-04-01T03:02:12;14.55;;;4.13;;
51082;SDS011;37131;42.694;23.350;2023-04-01T03:04:38;138.95;;;47.00;;
51082;SDS011;37131;42.694;23.350;2023-04-01T03:07:04;17.45;;;3.83;;
51082;SDS011;37131;42.694;23.350;2023-04-01T03:09:29;159.48;;;39.45;;
51082;SDS011;37131;42.694;23.350;2023-04-01T03:11:55;123.05;;;64.10;;
51082;SDS011;37131;42.694;23.350;2023-04-01T03:14:20;5.07;;;2.50;;
51082;SDS011;37131;42.694;23.350;2023-04-01T03:16:46;12.23;;;3.38;;
51082;SDS011;37131;42.694;23.350;2023-04-01T03:19:11;66.05;;;15.35;;
51082;SDS011;37131;42.694;23.350;2023-04-01T03:21:37;5.85;;;2.40;;
51082;SDS011;37131;42.694;23.350;2023-04-01T03:24:02;8.15;;;2.83;;
51082;SDS011;37131;42.694;23.350;2023-04-01T03:26:28;60.85;;;21.08;;
51082;SDS011;37131;42.694;23.350;2023-04-01T03:28:53;13.47;;;4.57;;
51082;SDS011;37131;42.694;23.350;2023-04-01T03:33:44;117.40;;;23.00;;
51082;SDS011;37131;42.694;23.350;2023-04-01T03:36:10;208.95;;;103.05;;
51082;SDS011;37131;42.694;23.350;2023-04-01T03:38:37;105.60;;;68.95;;
51082;SDS011;37131;42.694;23.350;2023-04-01T03:41:03;89.80;;;24.70;;
51082;SDS011;37131;42.694;23.350;2023-04-01T03:43:29;233.15;;;60.70;;
51082;SDS011;37131;42.694;23.350;2023-04-01T03:45:54;122.90;;;25.42;;
51082;SDS011;37131;42.694;23.350;2023-04-01T03:48:22;223.27;;;56.30;;
51082;SDS011;37131;42.694;23.350;2023-04-01T03:50:47;262.10;;;54.50;;
51082;SDS011;37131;42.694;23.350;2023-04-01T03:53:13;130.10;;;82.27;;
51082;SDS011;37131;42.694;23.350;2023-04-01T03:58:04;149.40;;;88.27;;
51082;SDS011;37131;42.694;23.350;2023-04-01T04:02:56;277.52;;;60.25;;
51082;SDS011;37131;42.694;23.350;2023-04-01T04:05:23;210.88;;;76.55;;
51082;SDS011;37131;42.694;23.350;2023-04-01T04:07:49;266.20;;;56.25;;
51082;SDS011;37131;42.694;23.350;2023-04-01T04:10:16;278.45;;;59.63;;
51082;SDS011;37131;42.694;23.350;2023-04-01T04:12:41;273.97;;;59.37;;
51082;SDS011;37131;42.694;23.350;2023-04-01T04:15:07;274.95;;;59.38;;
51082;SDS011;37131;42.694;23.350;2023-04-01T04:17:33;272.52;;;59.10;;
51082;SDS011;37131;42.694;23.350;2023-04-01T04:19:58;264.93;;;58.93;;
51082;SDS011;37131;42.694;23.350;2023-04-01T04:22:24;254.50;;;56.22;;
51082;SDS011;37131;42.694;23.350;2023-04-01T04:24:49;191.73;;;52.67;;
51082;SDS011;37131;42.694;23.350;2023-04-01T04:34:31;163.27;;;58.07;;
51082;SDS011;37131;42.694;23.350;2023-04-01T07:21:25;250.65;;;57.00;;
51082;SDS011;37131;42.694;23.350;2023-04-01T07:23:54;256.60;;;58.35;;
51082;SDS011;37131;42.694;23.350;2023-04-01T07:26:26;253.87;;;58.03;;
51082;SDS011;37131;42.694;23.350;2023-04-01T07:28:52;257.23;;;58.75;;
51082;SDS011;37131;42.694;23.350;2023-04-01T07:31:20;262.45;;;60.53;;
51082;SDS011;37131;42.694;23.350;2023-04-01T07:34:02;264.83;;;62.97;;
51082;SDS011;37131;42.694;23.350;2023-04-01T07:36:45;263.20;;;62.40;;
51082;SDS011;37131;42.694;23.350;2023-04-01T07:52:12;261.70;;;63.20;;
51082;SDS011;37131;42.694;23.350;2023-04-01T08:05:09;267.38;;;65.47;;
51082;SDS011;37131;42.694;23.350;2023-04-01T18:48:30;282.80;;;60.25;;
51082;SDS011;37131;42.694;23.350;2023-04-01T19:36:34;266.40;;;56.20;;
51082;SDS011;37131;42.694;23.350;2023-04-01T19:41:44;273.70;;;57.67;;
51082;SDS011;37131;42.694;23.350;2023-04-01T20:39:30;258.70;;;54.40;;
51082;SDS011;37131;42.694;23.350;2023-04-01T20:49:54;255.90;;;54.20;;
51082;SDS011;37131;42.694;23.350;2023-04-01T20:52:24;251.00;;;53.90;;
51082;SDS011;37131;42.694;23.350;2023-04-01T21:00:33;263.80;;;55.30;;
51082;SDS011;37131;42.694;23.350;2023-04-01T21:08:14;263.60;;;55.20;;
51082;SDS011;37131;42.694;23.350;2023-04-01T21:27:00;261.65;;;54.80;;
51082;SDS011;37131;42.694;23.350;2023-04-01T21:38:33;259.30;;;53.90;;
